Logo AVAMET
Benvolgut visitant, si us plau, ingressa Recuperar contrasenya

Inforatge Sueca el Perelló

Dades diàries. Acumulats / Últims 30 dies disponibles

Data Temperatura (°C) Humitat rel. (%) Pressió rel. (hPa) Vent (km/h) Precipitació
Mínima Mitjana Màxima Amplitud
tèrmica
Mínima Mitjana Màxima Mínima Mitjana Màxima Predom. Mitjana Ràfega
màxima
Total
(mm)
Índex-n
Mínima Mitjana Màxima Mínima Mitjana Màxima n
0 a 1
P0 max
mm 5'
Dades mensuals acumulades fins l'últim dia disponible
10/2019 11,2 16,0 20,7 20,5 19,8 25,2 33,8 22,6 29 75 94 1.005 1.016 1.023   9,3 54,7 7,4
Dades anuals acumulades fins l'últim dia disponible
2019 2,4 14,4 26,4 18,5 11,8 22,4 36,8 34,4 20 76 95 993 1.017 1.036   11,2 90,7 133,8
Últims 30 dies disponibles
21-10-2019 11,4     15,3     20,2 8,8 47 74 88 1.016 1.017 1.019 W 9,7 29,0 0,0
20-10-2019 15,3     17,8     19,8 4,5 57 76 89 1.005 1.009 1.016 W 10,3 51,5 0,4
19-10-2019 15,7     20,5     26,7 11,0 50 73 87 1.006 1.010 1.013 W 10,3 37,0 0,0
18-10-2019 15,8     21,1     27,7 11,9 48 66 79 1.013 1.015 1.018 W 11,3 43,5 0,0
17-10-2019 12,9     19,5     27,2 14,3 33 56 82 1.015 1.016 1.018 WSW 14,5 54,7 0,0
16-10-2019 11,2     17,9     25,4 14,2 31 54 74 1.016 1.019 1.021 WSW 12,4 33,8 0,0
15-10-2019 13,2     17,9     23,8 10,6 33 55 77 1.014 1.018 1.020 W 17,7 48,3 0,0
14-10-2019 19,6     22,1     23,9 4,3 58 86 93 1.011 1.014 1.017 ENE 8,4 43,5 5,4 0,27 1,20
13-10-2019 17,5     21,3     24,3 6,8 78 89 94 1.016 1.017 1.018 W 6,4 25,7 0,0
12-10-2019 18,4     21,7     24,6 6,2 79 87 93 1.017 1.019 1.020 ENE 4,2 20,9 0,0
11-10-2019 17,6     21,7     24,1 6,5 78 86 94 1.019 1.021 1.023 ESE 7,7 29,0 0,4
10-10-2019 20,7     21,9     22,9 2,2 78 84 90 1.020 1.021 1.022 NE 11,7 41,8 1,2
09-10-2019 17,6     21,4     24,8 7,2 75 85 92 1.016 1.017 1.020 S 7,8 27,8 0,0
08-10-2019 15,1     20,5     25,9 10,8 67 82 92 1.016 1.018 1.021 SSO 7,9 31,5 0,0
07-10-2019 17,0     21,0     26,2 9,2 42 78 94 1.015 1.017 1.019 SSO 7,6 37,0 0,0
06-10-2019 16,5     20,6     25,3 8,8 71 87 93 1.016 1.017 1.019 S 7,6 27,8 0,0
05-10-2019 15,1     20,6     25,1 10,0 63 83 93 1.014 1.015 1.017 SSO 6,6 32,2 0,0
04-10-2019 14,6     20,5     27,4 12,8 35 79 92 1.013 1.016 1.018 SSO 9,9 33,9 0,0
03-10-2019 14,5     19,8     23,9 9,4 44 69 91 1.015 1.017 1.018 SSO 8,6 33,9 0,0
02-10-2019 16,9     22,1     27,1 10,2 39 62 93 1.011 1.014 1.017 SSO 8,2 32,2 0,0
01-10-2019 18,7     24,6     33,8 15,1 29 72 94 1.008 1.011 1.016 SO 7,0 27,8 0,0
30-09-2019 18,0     22,1     25,6 7,6 71 85 93 1.015 1.016 1.018 S 6,3 24,1 0,0
29-09-2019 17,8     23,0     28,9 11,1 57 82 93 1.014 1.017 1.020 S 8,3 29,6 0,2
28-09-2019 17,9     22,3     25,8 7,9 78 88 93 1.018 1.019 1.021 S 5,5 19,3 0,0
27-09-2019 19,1     23,1     28,3 9,2 64 86 93 1.015 1.017 1.019 SSE 8,1 31,5 0,0
26-09-2019 19,3     22,6     25,5 6,2 75 87 93 1.017 1.018 1.020 SSO 7,5 32,2 0,0
25-09-2019 19,6     23,4     27,4 7,8 54 72 85 1.013 1.015 1.018 SSE 13,8 35,4 0,0
24-09-2019 16,3     24,1     32,7 16,4 31 60 91 1.013 1.016 1.019 OSO 14,5 40,7 0,0
23-09-2019 16,7     21,4     25,4 8,7 46 74 88 1.016 1.018 1.020 SSO 8,0 22,6 0,0
22-09-2019 20,6     24,6     30,3 9,7 51 76 93 1.011 1.013 1.016 OSO 9,6 35,4 0,0
Últims 13 mesos disponibles
09/2019 14,6 19,4 24,8 23,2 23,1 26,6 32,7 18,1 57 80 89 1.010 1.017 1.024 SSE 11,5 90,7 55,4
08/2019 17,6 21,8 26,4 25,5 26,7 28,8 36,8 19,2 67 81 87 1.010 1.016 1.020 S 9,9 79,6 5,2
07/2019 19,8 21,9 25,1 25,7 26,7 28,6 33,5 13,7 63 80 88 1.005 1.014 1.021 SSE 10,1 53,7 3,8
06/2019 12,9 18,1 22,4 21,6 20,1 24,8 30,4 17,5 54 78 87 1.009 1.015 1.022 SSE 10,9 64,8 0,8
05/2019 7,9 13,9 20,3 18,0 17,3 21,3 32,7 24,8 53 76 87 1.005 1.015 1.024 SSE 11,4 66,7 5,0
04/2019 6,8 10,7 14,6 14,8 15,4 18,9 29,3 22,5 52 73 94 1.000 1.014 1.025 SE 14,6 77,8 41,6
03/2019 4,2 8,1 13,5 13,3 13,2 18,1 27,7 23,5 52 71 87 1.012 1.023 1.030 S 10,3 61,1 12,8
02/2019 3,4 7,0 11,0 11,4 11,8 16,3 21,3 17,9 45 74 88 995 1.025 1.034 SSO 11,4 82,0 0,8
01/2019 2,4 6,9 11,9 10,7 12,3 15,8 20,2 17,8 54 68 84 1.002 1.019 1.031 OSO 12,4 72,4 1,0
12/2018 5,7 9,4 13,4 12,7 13,2 17,3 22,1 16,4 65 77 90 1.009 1.025 1.031 OSO 11,3 69,3 19,4
11/2018 7,6 12,1 17,7 14,7 14,4 18,0 21,9 14,3 63 78 93 1.001 1.015 1.024 OSO 12,6 83,7 165,4
10/2018 8,7 14,5 19,4 18,3 13,7 21,9 26,4 17,7 54 78 94 1.000 1.014 1.025 SO 10,2 72,4 302,2
09/2018 14,6 19,7 23,1 23,6 24,7 26,7 28,3 13,7 73 83 88 1.012 1.019 1.028 9,1 55,6 102,0
Tots els anys disponibles
2018 1,2 14,1 26,1 17,8 8,3 21,5 35,2 34,0 46 76 94 993 1.016 1.035 S 12,0 98,2 769,4
2017 2,2 14,8 25,8 18,7 11,1 22,3 35,3 33,1 48 77 93 998 1.019 1.036 S 6,5 88,9 175,2
Temperatura (°C)
Humitat relativa (%)
Velocitat del vent i ràfega màxima (km/h)
Direcció del vent (°)
Pressió (hPa)
Precipitació (mm)
Nota sobre les dades: s'avisa a l'usuari de la provisionalitat i no oficialitat d'aquestes dades
Logo AVAMET blanc
Web allotjada a Sollutia
Llicència de Creative CommonsLa web d'AVAMET i els seus continguts estan subjectes a una llicència de
Reconeixement - No Comercial - Compartir igual
Últimes estacions: Sueca - Centre (Inforatge), Xàbia - La Plana (Soci), Banyeres de Mariola - Molí Sol (Soci), Villena - Villa Ventín (Soci), Benissa - Convent (Soci), Xàbia Fontanella (Soci), Castielfabib (Soci) --- Properes estacions: Villena - Serra de Salines (Soci) - - -